createdAt,value
2022-12-31T00:01:18.140Z,99117.16
2022-12-31T00:03:46.270Z,99123.91
2022-12-31T00:06:31.904Z,99125.16
2022-12-31T00:09:01.027Z,99127.28
2022-12-31T00:11:29.797Z,99124.56
2022-12-31T00:13:57.743Z,99128.78
2022-12-31T00:16:27.637Z,99137.22
2022-12-31T00:18:58.347Z,99146.28
2022-12-31T00:21:26.912Z,99156.78
2022-12-31T00:23:54.021Z,99131.13
2022-12-31T00:26:23.691Z,99151.31
2022-12-31T00:28:52.452Z,99154.72
2022-12-31T00:31:24.682Z,99156.78
2022-12-31T00:33:52.237Z,99154.91
2022-12-31T00:36:25.197Z,99152.81
2022-12-31T00:38:53.626Z,99146.91
2022-12-31T00:41:21.448Z,99157.25
2022-12-31T00:43:48.956Z,99149.44
2022-12-31T00:46:17.178Z,99154.31
2022-12-31T00:48:44.616Z,99144.19
2022-12-31T00:51:14.425Z,99136.41
2022-12-31T00:53:41.822Z,99143.97
2022-12-31T00:56:18.731Z,99145.66
2022-12-31T00:58:46.808Z,99136.81
2022-12-31T01:01:40.286Z,99157.88
2022-12-31T01:04:13.941Z,99165.47
2022-12-31T01:06:43.066Z,99166.72
2022-12-31T01:09:11.672Z,99159.13
2022-12-31T01:11:38.692Z,99143.97
2022-12-31T01:14:07.579Z,99149.25
2022-12-31T01:16:41.307Z,99158.72
2022-12-31T01:19:11.419Z,99156.84
2022-12-31T01:21:40.406Z,99141.91
2022-12-31T01:24:08.800Z,99160.66
2022-12-31T01:26:36.801Z,99172.22
2022-12-31T01:29:05.354Z,99161.88
2022-12-31T01:31:33.802Z,99158.31
2022-12-31T01:34:00.965Z,99154.53
2022-12-31T01:36:30.743Z,99162.31
2022-12-31T01:39:00.608Z,99170.09
2022-12-31T01:41:31.172Z,99189.91
2022-12-31T01:44:22.753Z,99180.00
2022-12-31T01:46:54.445Z,99168.84
2022-12-31T01:49:30.999Z,99153.47
2022-12-31T01:52:06.478Z,99159.78
2022-12-31T01:54:40.778Z,99166.31
2022-12-31T01:57:09.574Z,99183.16
2022-12-31T01:59:36.903Z,99188.03
2022-12-31T02:02:05.623Z,99182.53
2022-12-31T02:04:33.046Z,99180.63
2022-12-31T02:07:03.109Z,99178.31
2022-12-31T02:09:31.297Z,99177.28
2022-12-31T02:11:58.392Z,99174.13
2022-12-31T02:14:35.116Z,99190.09
2022-12-31T02:17:39.950Z,99186.34
2022-12-31T02:20:38.176Z,99189.69
2022-12-31T02:23:41.475Z,99189.06
2022-12-31T02:26:41.828Z,99188.00
2022-12-31T02:29:30.872Z,99167.97
2022-12-31T02:32:03.989Z,99166.72
2022-12-31T02:34:37.581Z,99167.34
2022-12-31T02:37:10.296Z,99167.97
2022-12-31T02:39:38.184Z,99165.03
2022-12-31T02:42:05.366Z,99154.91
2022-12-31T02:44:35.034Z,99170.69
2022-12-31T02:47:08.107Z,99159.34
2022-12-31T02:49:47.233Z,99157.84
2022-12-31T02:52:43.967Z,99156.59
2022-12-31T02:55:24.383Z,99162.25
2022-12-31T02:58:28.431Z,99165.66
2022-12-31T03:00:57.983Z,99170.47
2022-12-31T03:03:26.872Z,99165.25
2022-12-31T03:05:55.469Z,99169.25
2022-12-31T03:08:23.969Z,99178.06
2022-12-31T03:11:01.998Z,99183.13
2022-12-31T03:13:29.134Z,99144.56
2022-12-31T03:15:56.278Z,99181.00
2022-12-31T03:18:23.478Z,99178.88
2022-12-31T03:20:51.289Z,99166.25
2022-12-31T03:23:31.321Z,99157.19
2022-12-31T03:25:59.945Z,99157.81
2022-12-31T03:28:30.070Z,99165.22
2022-12-31T03:31:00.183Z,99175.28
2022-12-31T03:33:34.904Z,99175.50
2022-12-31T03:36:10.384Z,99149.38
2022-12-31T03:38:38.031Z,99178.91
2022-12-31T03:41:05.339Z,99169.41
2022-12-31T03:43:32.433Z,99177.44
2022-12-31T03:45:59.717Z,99172.75
2022-12-31T03:48:27.137Z,99174.69
2022-12-31T03:50:54.463Z,99191.53
2022-12-31T03:53:21.493Z,99206.28
2022-12-31T03:55:53.268Z,99206.91
2022-12-31T03:58:20.400Z,99186.69
2022-12-31T04:00:47.350Z,99209.22
2022-12-31T04:03:17.632Z,99206.91
2022-12-31T04:05:44.765Z,99212.59
2022-12-31T04:08:11.798Z,99214.09
2022-12-31T04:10:38.798Z,99210.50
2022-12-31T04:13:05.827Z,99214.72
2022-12-31T04:15:32.882Z,99219.78
2022-12-31T04:17:59.998Z,99205.00
2022-12-31T04:20:27.144Z,99212.81
2022-12-31T04:22:54.207Z,99223.78
2022-12-31T04:25:21.248Z,99240.41
2022-12-31T04:27:48.260Z,99236.81
2022-12-31T04:30:15.505Z,99221.88
2022-12-31T04:32:42.565Z,99222.50
2022-12-31T04:35:10.813Z,99214.28
2022-12-31T04:37:37.896Z,99239.38
2022-12-31T04:40:07.018Z,99232.00
2022-12-31T04:42:35.035Z,99232.81
2022-12-31T04:45:02.259Z,99232.59
2022-12-31T04:47:29.323Z,99244.63
2022-12-31T04:49:56.373Z,99249.72
2022-12-31T04:52:23.449Z,99249.06
2022-12-31T04:54:50.484Z,99246.09
2022-12-31T04:57:17.620Z,99233.88
2022-12-31T04:59:44.696Z,99250.97
2022-12-31T05:02:11.868Z,99239.13
2022-12-31T05:04:39.219Z,99256.22
2022-12-31T05:07:06.331Z,99251.56
2022-12-31T05:09:33.412Z,99256.22
2022-12-31T05:12:00.539Z,99273.31
2022-12-31T05:14:27.621Z,99269.94
2022-12-31T05:16:54.743Z,99258.31
2022-12-31T05:19:21.783Z,99252.22
2022-12-31T05:21:48.886Z,99259.38
2022-12-31T05:24:16.062Z,99251.56
2022-12-31T05:26:43.094Z,99251.34
2022-12-31T05:29:10.271Z,99216.53
2022-12-31T05:31:37.342Z,99236.13
2022-12-31T05:34:04.377Z,99235.94
2022-12-31T05:36:31.581Z,99227.47
2022-12-31T05:38:58.645Z,99246.91
2022-12-31T05:41:25.673Z,99233.38
2022-12-31T05:43:52.681Z,99236.28
2022-12-31T05:46:19.832Z,99237.16
2022-12-31T05:48:47.006Z,99230.81
2022-12-31T05:51:14.000Z,99235.25
2022-12-31T05:53:41.126Z,99235.44
2022-12-31T05:56:08.154Z,99242.00
2022-12-31T05:58:35.134Z,99221.09
2022-12-31T06:01:02.220Z,99232.31
2022-12-31T06:03:29.309Z,99244.28
2022-12-31T06:05:56.439Z,99247.47
2022-12-31T06:08:23.437Z,99253.53
2022-12-31T06:10:50.403Z,99231.78
2022-12-31T06:13:17.440Z,99263.47
2022-12-31T06:15:44.496Z,99264.72
2022-12-31T06:18:12.251Z,99263.47
2022-12-31T06:20:39.262Z,99245.50
2022-12-31T06:23:06.412Z,99263.69
2022-12-31T06:25:35.700Z,99269.34
2022-12-31T06:28:04.385Z,99278.41
2022-12-31T06:30:31.917Z,99275.44
2022-12-31T06:32:58.994Z,99286.22
2022-12-31T06:35:25.982Z,99290.22
2022-12-31T06:37:53.190Z,99283.66
2022-12-31T06:40:20.208Z,99301.16
2022-12-31T06:42:47.238Z,99297.38
2022-12-31T06:45:14.267Z,99308.75
2022-12-31T06:47:41.375Z,99304.94
2022-12-31T06:50:08.998Z,99306.41
2022-12-31T06:52:36.354Z,99313.16
2022-12-31T06:55:04.530Z,99325.41
2022-12-31T06:57:31.839Z,99325.81
2022-12-31T06:59:59.426Z,99327.50
2022-12-31T07:02:34.078Z,99318.41
2022-12-31T07:05:13.101Z,99327.75
2022-12-31T07:08:11.602Z,99327.28
2022-12-31T07:11:18.459Z,99343.97
2022-12-31T07:14:18.745Z,99335.28
2022-12-31T07:17:08.308Z,99333.59
2022-12-31T07:19:59.664Z,99336.78
2022-12-31T07:22:27.180Z,99324.94
2022-12-31T07:24:54.700Z,99321.59
2022-12-31T07:27:54.162Z,99323.72
2022-12-31T07:30:53.899Z,99325.63
2022-12-31T07:33:39.746Z,99326.88
2022-12-31T07:36:31.752Z,99341.03
2022-12-31T07:39:05.918Z,99341.44
2022-12-31T07:42:01.119Z,99332.16
2022-12-31T07:44:45.330Z,99334.69
2022-12-31T07:47:20.907Z,99331.03
2022-12-31T07:49:48.643Z,99334.47
2022-12-31T07:52:16.240Z,99320.31
2022-12-31T07:54:43.630Z,99325.34
2022-12-31T07:57:12.949Z,99327.69
2022-12-31T07:59:51.826Z,99335.50
2022-12-31T08:02:21.694Z,99341.41
2022-12-31T08:05:13.538Z,99353.22
2022-12-31T08:07:58.287Z,99350.22
2022-12-31T08:10:52.373Z,99348.75
2022-12-31T08:13:23.503Z,99361.81
2022-12-31T08:15:50.898Z,99361.22
2022-12-31T08:18:18.117Z,99370.44
2022-12-31T08:21:00.551Z,99368.75
2022-12-31T08:23:58.401Z,99376.97
2022-12-31T08:26:54.851Z,99395.38
2022-12-31T08:29:33.701Z,99386.72
2022-12-31T08:32:16.772Z,99382.28
2022-12-31T08:35:03.078Z,99382.28
2022-12-31T08:37:41.640Z,99383.75
2022-12-31T08:40:31.515Z,99393.28
2022-12-31T08:43:30.215Z,99402.78
2022-12-31T08:45:58.458Z,99401.06
2022-12-31T08:48:43.789Z,99418.63
2022-12-31T08:51:29.342Z,99423.88
2022-12-31T08:53:56.709Z,99396.00
2022-12-31T08:56:32.526Z,99412.66
2022-12-31T08:59:24.353Z,99414.59
2022-12-31T09:02:07.565Z,99412.44
2022-12-31T09:05:12.359Z,99420.50
2022-12-31T09:07:58.075Z,99438.41
2022-12-31T09:10:54.030Z,99429.53
2022-12-31T09:13:40.244Z,99425.06
2022-12-31T09:16:39.640Z,99421.06
2022-12-31T09:19:09.370Z,99414.50
2022-12-31T09:21:36.606Z,99409.00
2022-12-31T09:24:09.356Z,99440.31
2022-12-31T09:26:55.564Z,99427.41
2022-12-31T09:29:47.832Z,99420.22
2022-12-31T09:32:28.431Z,99437.31
2022-12-31T09:35:03.988Z,99436.06
2022-12-31T09:37:42.292Z,99443.84
2022-12-31T09:40:45.972Z,99449.56
2022-12-31T09:43:54.557Z,99452.72
2022-12-31T09:47:02.617Z,99450.81
2022-12-31T09:49:58.063Z,99452.06
2022-12-31T09:52:38.828Z,99448.00
2022-12-31T09:55:31.142Z,99448.44
2022-12-31T09:58:21.115Z,99441.88
2022-12-31T10:00:57.897Z,99456.47
2022-12-31T10:03:43.572Z,99461.94
2022-12-31T10:06:28.539Z,99444.97
2022-12-31T10:09:25.543Z,99457.22
2022-12-31T10:12:21.005Z,99456.78
2022-12-31T10:15:03.434Z,99448.53
2022-12-31T10:17:56.429Z,99448.97
2022-12-31T10:20:25.795Z,99439.44
2022-12-31T10:23:17.799Z,99441.50
2022-12-31T10:26:07.386Z,99443.38
2022-12-31T10:28:59.625Z,99447.97
2022-12-31T10:31:40.636Z,99444.75
2022-12-31T10:34:16.911Z,99440.53
2022-12-31T10:37:06.693Z,99445.75
2022-12-31T10:40:03.849Z,99440.63
2022-12-31T10:42:45.971Z,99466.31
2022-12-31T10:45:41.140Z,99458.94
2022-12-31T10:48:23.366Z,99465.84
2022-12-31T10:51:27.891Z,99458.66
2022-12-31T10:54:16.070Z,99459.75
2022-12-31T10:56:53.970Z,99464.50
2022-12-31T10:59:33.296Z,99470.84
2022-12-31T11:02:01.452Z,99462.31
2022-12-31T11:04:51.695Z,99462.44
2022-12-31T11:07:45.599Z,99462.63
2022-12-31T11:14:24.691Z,99454.94
2022-12-31T11:17:04.947Z,99467.19
2022-12-31T11:20:04.030Z,99447.38
2022-12-31T11:22:55.485Z,99450.06
2022-12-31T11:25:38.798Z,99438.25
2022-12-31T11:28:23.999Z,99441.94
2022-12-31T11:31:11.801Z,99436.56
2022-12-31T11:34:00.482Z,99458.97
2022-12-31T11:36:59.860Z,99450.91
2022-12-31T11:39:49.626Z,99448.59
2022-12-31T11:42:47.540Z,99447.06
2022-12-31T11:45:42.269Z,99452.72
2022-12-31T11:48:31.836Z,99460.78
2022-12-31T11:51:14.592Z,99459.47
2022-12-31T11:54:35.403Z,99472.47
2022-12-31T11:57:16.735Z,99469.69
2022-12-31T11:59:44.938Z,99472.88
2022-12-31T12:02:33.293Z,99475.84
2022-12-31T12:05:10.277Z,99468.59
2022-12-31T12:07:38.463Z,99463.75
2022-12-31T12:10:16.986Z,99464.81
2022-12-31T12:12:47.847Z,99464.59
2022-12-31T12:15:24.806Z,99488.53
2022-12-31T12:17:54.609Z,99479.59
2022-12-31T12:20:30.707Z,99474.69
2022-12-31T12:23:00.963Z,99473.78
2022-12-31T12:25:38.237Z,99466.09
2022-12-31T12:28:18.631Z,99465.16
2022-12-31T12:30:54.417Z,99461.75
2022-12-31T12:33:21.515Z,99461.91
2022-12-31T12:35:54.039Z,99470.09
2022-12-31T12:38:23.482Z,99477.69
2022-12-31T12:41:21.077Z,99469.50
2022-12-31T12:43:48.161Z,99444.38
2022-12-31T12:46:31.129Z,99479.16
2022-12-31T12:48:58.642Z,99469.25
2022-12-31T12:52:03.297Z,99472.09
2022-12-31T12:54:41.712Z,99475.91
2022-12-31T12:57:47.890Z,99478.81
2022-12-31T13:00:37.290Z,99470.09
2022-12-31T13:03:29.790Z,99473.09
2022-12-31T13:06:33.583Z,99460.38
2022-12-31T13:09:17.174Z,99462.06
2022-12-31T13:12:12.021Z,99457.50
2022-12-31T13:14:41.691Z,99460.31
2022-12-31T13:17:40.940Z,99453.81
2022-12-31T13:20:26.395Z,99451.81
2022-12-31T13:23:07.043Z,99472.09
2022-12-31T13:25:38.489Z,99472.16
2022-12-31T13:28:11.953Z,99470.06
2022-12-31T13:30:47.167Z,99473.31
2022-12-31T13:33:24.323Z,99461.28
2022-12-31T13:35:58.260Z,99462.72
2022-12-31T13:38:41.899Z,99446.88
2022-12-31T13:41:23.975Z,99434.25
2022-12-31T13:44:02.898Z,99449.75
2022-12-31T13:46:44.873Z,99439.88
2022-12-31T13:49:21.393Z,99443.69
2022-12-31T13:51:58.743Z,99446.47
2022-12-31T13:54:36.311Z,99443.78
2022-12-31T13:57:11.327Z,99436.22
2022-12-31T13:59:42.465Z,99437.03
2022-12-31T14:02:29.168Z,99449.13
2022-12-31T14:05:11.725Z,99449.13
2022-12-31T14:07:46.992Z,99443.44
2022-12-31T14:10:15.344Z,99442.59
2022-12-31T14:12:53.921Z,99454.91
2022-12-31T14:15:33.347Z,99439.91
2022-12-31T14:18:17.508Z,99453.50
2022-12-31T14:21:20.992Z,99459.44
2022-12-31T14:24:03.049Z,99453.75
2022-12-31T14:26:43.041Z,99448.69
2022-12-31T14:29:10.018Z,99458.22
2022-12-31T14:31:45.929Z,99467.34
2022-12-31T14:34:15.615Z,99484.69
2022-12-31T14:36:54.797Z,99484.28
2022-12-31T14:39:43.244Z,99500.13
2022-12-31T14:42:38.900Z,99492.13
2022-12-31T14:45:39.021Z,99485.44
2022-12-31T14:48:31.829Z,99497.06
2022-12-31T14:51:04.056Z,99499.63
2022-12-31T14:53:31.319Z,99496.03
2022-12-31T14:56:01.997Z,99490.78
2022-12-31T14:58:38.552Z,99496.13
2022-12-31T15:01:18.975Z,99494.28
2022-12-31T15:03:46.540Z,99496.81
2022-12-31T15:06:22.362Z,99485.41
2022-12-31T15:08:52.403Z,99488.59
2022-12-31T15:11:27.729Z,99493.03
2022-12-31T15:14:00.945Z,99499.19
2022-12-31T15:17:04.196Z,99491.63
2022-12-31T15:19:49.964Z,99485.94
2022-12-31T15:22:46.697Z,99492.72
2022-12-31T15:25:40.024Z,99482.38
2022-12-31T15:28:28.554Z,99497.78
2022-12-31T15:31:02.241Z,99489.13
2022-12-31T15:33:36.331Z,99495.69
2022-12-31T15:36:14.820Z,99491.66
2022-12-31T15:38:43.136Z,99478.34
2022-12-31T15:42:03.001Z,99496.50
2022-12-31T15:44:54.889Z,99492.06
2022-12-31T15:47:41.363Z,99497.34
2022-12-31T15:50:17.111Z,99499.88
2022-12-31T15:52:53.821Z,99489.53
2022-12-31T15:55:39.882Z,99504.09
2022-12-31T15:58:12.007Z,99503.50
2022-12-31T16:01:04.623Z,99510.88
2022-12-31T16:03:32.122Z,99514.03
2022-12-31T16:06:01.802Z,99509.81
2022-12-31T16:08:34.795Z,99510.88
2022-12-31T16:11:04.713Z,99513.63
2022-12-31T16:13:34.780Z,99506.00
2022-12-31T16:16:08.403Z,99514.66
2022-12-31T16:18:42.965Z,99510.03
2022-12-31T16:21:32.963Z,99508.75
2022-12-31T16:24:27.076Z,99508.75
2022-12-31T16:26:59.027Z,99516.31
2022-12-31T16:29:27.308Z,99518.59
2022-12-31T16:31:54.556Z,99518.56
2022-12-31T16:34:24.601Z,99521.03
2022-12-31T16:37:01.828Z,99515.94
2022-12-31T16:39:34.630Z,99511.06
2022-12-31T16:42:19.218Z,99516.53
2022-12-31T16:44:48.024Z,99516.28
2022-12-31T16:47:20.184Z,99525.13
2022-12-31T16:50:09.174Z,99527.44
2022-12-31T16:52:42.836Z,99522.78
2022-12-31T16:55:15.541Z,99525.94
2022-12-31T16:57:46.199Z,99524.84
2022-12-31T17:00:18.562Z,99529.47
2022-12-31T17:02:55.761Z,99526.69
2022-12-31T17:05:26.038Z,99535.53
2022-12-31T17:07:53.378Z,99546.69
2022-12-31T17:10:26.574Z,99535.94
2022-12-31T17:15:45.921Z,99535.66
2022-12-31T17:18:20.506Z,99538.31
2022-12-31T17:20:50.165Z,99535.53
2022-12-31T17:23:28.778Z,99531.44
2022-12-31T17:26:22.263Z,99537.50
2022-12-31T17:28:51.706Z,99531.75
2022-12-31T17:31:26.097Z,99527.84
2022-12-31T17:34:04.195Z,99530.09
2022-12-31T17:36:31.330Z,99534.28
2022-12-31T17:39:18.962Z,99530.91
2022-12-31T17:41:47.731Z,99533.84
2022-12-31T17:44:19.840Z,99533.84
2022-12-31T17:46:49.128Z,99527.69
2022-12-31T17:49:16.284Z,99526.88
2022-12-31T17:51:47.541Z,99535.13
2022-12-31T17:54:15.480Z,99536.81
2022-12-31T17:56:43.005Z,99541.03
2022-12-31T17:59:27.131Z,99534.34
2022-12-31T18:01:54.543Z,99524.69
2022-12-31T18:04:21.888Z,99538.19
2022-12-31T18:06:48.930Z,99537.22
2022-12-31T18:09:15.930Z,99540.59
2022-12-31T18:11:43.160Z,99546.53
2022-12-31T18:14:14.705Z,99532.66
2022-12-31T18:16:42.219Z,99531.00
2022-12-31T18:19:23.470Z,99535.53
2022-12-31T18:21:51.032Z,99546.91
2022-12-31T18:24:22.788Z,99548.38
2022-12-31T18:26:52.881Z,99545.84
2022-12-31T18:29:19.870Z,99548.53
2022-12-31T18:31:48.692Z,99554.25
2022-12-31T18:34:17.648Z,99548.78
2022-12-31T18:36:45.421Z,99543.50
2022-12-31T18:39:12.488Z,99551.28
2022-12-31T18:41:43.898Z,99547.69
2022-12-31T18:44:13.345Z,99561.16
2022-12-31T18:46:41.622Z,99561.59
2022-12-31T18:49:09.439Z,99561.41
2022-12-31T18:51:36.532Z,99552.84
2022-12-31T18:54:04.507Z,99559.03
2022-12-31T18:56:31.662Z,99558.81
2022-12-31T18:58:58.784Z,99567.56
2022-12-31T19:01:31.508Z,99568.31
2022-12-31T19:04:01.212Z,99568.31
2022-12-31T19:06:29.556Z,99568.75
2022-12-31T19:08:56.936Z,99571.94
2022-12-31T19:11:24.136Z,99575.53
2022-12-31T19:13:51.213Z,99577.03
2022-12-31T19:16:18.346Z,99581.88
2022-12-31T19:18:45.776Z,99579.97
2022-12-31T19:21:19.599Z,99594.56
2022-12-31T19:23:47.124Z,99591.38
2022-12-31T19:26:19.987Z,99592.66
2022-12-31T19:28:48.371Z,99583.00
2022-12-31T19:31:16.466Z,99587.00
2022-12-31T19:33:44.403Z,99590.34
2022-12-31T19:36:20.049Z,99596.06
2022-12-31T19:38:47.186Z,99589.69
2022-12-31T19:41:19.288Z,99588.47
2022-12-31T19:43:47.778Z,99581.94
2022-12-31T19:46:16.191Z,99593.19
2022-12-31T19:48:43.782Z,99588.56
2022-12-31T19:51:15.501Z,99591.53
2022-12-31T19:53:42.407Z,99593.81
2022-12-31T19:56:13.715Z,99592.31
2022-12-31T19:58:41.207Z,99596.50
2022-12-31T20:01:12.792Z,99602.19
2022-12-31T20:03:39.902Z,99596.47
2022-12-31T20:06:09.882Z,99596.25
2022-12-31T20:08:38.737Z,99597.06
2022-12-31T20:11:11.430Z,99593.66
2022-12-31T20:13:39.784Z,99596.19
2022-12-31T20:16:13.078Z,99597.47
2022-12-31T20:18:41.460Z,99593.81
2022-12-31T20:21:10.907Z,99604.81
2022-12-31T20:23:38.123Z,99605.44
2022-12-31T20:26:05.304Z,99607.72
2022-12-31T20:28:32.324Z,99603.97
2022-12-31T20:31:05.206Z,99602.38
2022-12-31T20:33:32.291Z,99593.22
2022-12-31T20:36:06.303Z,99597.22
2022-12-31T20:38:33.776Z,99603.50
2022-12-31T20:41:11.786Z,99599.94
2022-12-31T20:43:38.830Z,99602.72
2022-12-31T20:46:15.378Z,99598.22
2022-12-31T20:48:44.070Z,99585.78
2022-12-31T20:51:11.963Z,99593.34
2022-12-31T20:53:39.062Z,99597.16
2022-12-31T20:56:07.381Z,99598.44
2022-12-31T20:58:34.752Z,99599.03
2022-12-31T21:01:06.268Z,99595.91
2022-12-31T21:04:04.511Z,99605.22
2022-12-31T21:06:23.699Z,99601.19
2022-12-31T21:08:51.035Z,99598.16
2022-12-31T21:11:18.069Z,99606.56
2022-12-31T21:13:45.115Z,99609.94
2022-12-31T21:16:12.191Z,99609.50
2022-12-31T21:18:39.261Z,99612.22
2022-12-31T21:21:06.542Z,99614.72
2022-12-31T21:23:33.544Z,99622.47
2022-12-31T21:26:00.609Z,99616.16
2022-12-31T21:28:27.585Z,99619.25
2022-12-31T21:31:02.670Z,99612.03
2022-12-31T21:33:30.100Z,99620.00
2022-12-31T21:36:02.605Z,99618.06
2022-12-31T21:38:31.503Z,99610.19
2022-12-31T21:41:07.291Z,99623.38
2022-12-31T21:43:34.765Z,99639.53
2022-12-31T21:46:04.831Z,99635.91
2022-12-31T21:48:32.851Z,99638.78
2022-12-31T21:51:09.877Z,99635.97
2022-12-31T21:53:37.639Z,99630.09
2022-12-31T21:56:05.494Z,99627.59
2022-12-31T21:58:32.557Z,99637.66
2022-12-31T22:01:00.249Z,99639.66
2022-12-31T22:03:28.477Z,99639.66
2022-12-31T22:06:18.115Z,99630.81
2022-12-31T22:08:46.315Z,99637.53
2022-12-31T22:11:14.090Z,99636.63
2022-12-31T22:13:41.509Z,99637.66
2022-12-31T22:16:08.963Z,99644.56
2022-12-31T22:18:37.998Z,99645.72
2022-12-31T22:21:18.368Z,99641.28
2022-12-31T22:23:57.157Z,99653.19
2022-12-31T22:26:26.915Z,99658.56
2022-12-31T22:28:54.786Z,99661.91
2022-12-31T22:31:23.371Z,99665.84
2022-12-31T22:33:50.561Z,99667.50
2022-12-31T22:36:23.399Z,99665.88
2022-12-31T22:38:54.275Z,99658.72
2022-12-31T22:41:22.472Z,99675.31
2022-12-31T22:43:54.955Z,99666.09
2022-12-31T22:46:27.812Z,99674.50
2022-12-31T22:48:58.617Z,99682.75
2022-12-31T22:51:54.906Z,99683.50
2022-12-31T22:54:14.717Z,99676.72
2022-12-31T22:56:41.931Z,99682.47
2022-12-31T22:59:09.184Z,99685.06
2022-12-31T23:01:36.986Z,99693.75
2022-12-31T23:04:04.794Z,99689.59
2022-12-31T23:06:32.396Z,99700.53
2022-12-31T23:08:59.392Z,99695.22
2022-12-31T23:11:26.517Z,99695.69
2022-12-31T23:13:53.528Z,99695.69
2022-12-31T23:16:21.377Z,99682.31
2022-12-31T23:18:48.385Z,99693.88
2022-12-31T23:21:15.864Z,99686.19
2022-12-31T23:23:42.848Z,99679.03
2022-12-31T23:26:09.957Z,99685.47
2022-12-31T23:28:36.982Z,99687.38
2022-12-31T23:31:06.243Z,99680.19
2022-12-31T23:33:33.405Z,99678.97
2022-12-31T23:36:07.266Z,99684.25
2022-12-31T23:38:34.359Z,99688.03
2022-12-31T23:41:10.699Z,99689.00
2022-12-31T23:43:37.743Z,99699.09
2022-12-31T23:46:04.787Z,99703.72
2022-12-31T23:48:31.830Z,99699.03
2022-12-31T23:50:58.859Z,99696.50
2022-12-31T23:53:25.947Z,99693.94
2022-12-31T23:55:53.236Z,99693.56
2022-12-31T23:58:20.500Z,99705.47
